sensor_id;sensor_type;location;lat;lon;timestamp;pressure;altitude;pressure_sealevel;temperature;humidity
74218;BME280;62579;47.288;18.646;2022-10-17T00:10:07;101189.44;;;9.97;80.66
74218;BME280;62579;47.288;18.646;2022-10-17T00:12:33;101192.47;;;9.90;80.97
74218;BME280;62579;47.288;18.646;2022-10-17T00:14:58;101195.53;;;9.83;81.06
74218;BME280;62579;47.288;18.646;2022-10-17T00:17:23;101198.56;;;9.76;81.48
74218;BME280;62579;47.288;18.646;2022-10-17T00:19:49;101187.38;;;9.74;81.80
74218;BME280;62579;47.288;18.646;2022-10-17T00:22:14;101186.16;;;9.84;81.45
74218;BME280;62579;47.288;18.646;2022-10-17T00:24:39;101185.56;;;9.80;81.60
74218;BME280;62579;47.288;18.646;2022-10-17T00:27:05;101190.56;;;9.81;81.47
74218;BME280;62579;47.288;18.646;2022-10-17T00:29:30;101186.47;;;9.77;81.23
74218;BME280;62579;47.288;18.646;2022-10-17T00:31:55;101188.56;;;9.82;80.89
74218;BME280;62579;47.288;18.646;2022-10-17T00:34:21;101183.19;;;9.73;81.04
74218;BME280;62579;47.288;18.646;2022-10-17T00:36:46;101182.00;;;9.64;81.18
74218;BME280;62579;47.288;18.646;2022-10-17T00:41:50;101186.69;;;9.55;81.57
74218;BME280;62579;47.288;18.646;2022-10-17T00:46:53;101193.34;;;9.54;81.02
74218;BME280;62579;47.288;18.646;2022-10-17T00:49:18;101193.34;;;9.54;81.17
74218;BME280;62579;47.288;18.646;2022-10-17T00:51:55;101195.00;;;9.42;82.09
74218;BME280;62579;47.288;18.646;2022-10-17T00:54:26;101198.34;;;9.46;81.50
74218;BME280;62579;47.288;18.646;2022-10-17T00:56:52;101194.09;;;9.54;81.02
74218;BME280;62579;47.288;18.646;2022-10-17T00:59:19;101188.38;;;9.43;81.54
74218;BME280;62579;47.288;18.646;2022-10-17T01:01:50;101195.31;;;9.44;81.57
74218;BME280;62579;47.288;18.646;2022-10-17T01:04:17;101194.41;;;9.47;80.99
74218;BME280;62579;47.288;18.646;2022-10-17T01:06:43;101194.88;;;9.37;81.67
74218;BME280;62579;47.288;18.646;2022-10-17T01:17:15;101200.47;;;9.24;81.70
74218;BME280;62579;47.288;18.646;2022-10-17T01:22:51;101195.34;;;9.08;82.22
74218;BME280;62579;47.288;18.646;2022-10-17T01:33:11;101185.53;;;9.11;82.61
74218;BME280;62579;47.288;18.646;2022-10-17T01:35:40;101180.88;;;9.11;82.59
74218;BME280;62579;47.288;18.646;2022-10-17T01:38:17;101177.22;;;9.23;81.87
74218;BME280;62579;47.288;18.646;2022-10-17T01:40:48;101179.31;;;9.28;81.39
74218;BME280;62579;47.288;18.646;2022-10-17T01:43:17;101185.66;;;9.25;81.94
74218;BME280;62579;47.288;18.646;2022-10-17T01:45:50;101185.53;;;9.38;81.45
74218;BME280;62579;47.288;18.646;2022-10-17T01:48:17;101188.38;;;9.34;81.53
74218;BME280;62579;47.288;18.646;2022-10-17T01:50:45;101186.28;;;9.29;81.87
74218;BME280;62579;47.288;18.646;2022-10-17T01:53:13;101185.66;;;9.25;81.43
74218;BME280;62579;47.288;18.646;2022-10-17T01:55:41;101179.66;;;9.21;81.98
74218;BME280;62579;47.288;18.646;2022-10-17T01:58:12;101177.97;;;9.15;82.50
74218;BME280;62579;47.288;18.646;2022-10-17T02:00:41;101182.22;;;9.16;82.96
74218;BME280;62579;47.288;18.646;2022-10-17T02:03:08;101185.53;;;9.11;83.69
74218;BME280;62579;47.288;18.646;2022-10-17T02:05:35;101192.31;;;9.15;82.61
74218;BME280;62579;47.288;18.646;2022-10-17T02:08:01;101194.72;;;9.04;82.36
74218;BME280;62579;47.288;18.646;2022-10-17T02:10:30;101188.41;;;8.98;82.62
74218;BME280;62579;47.288;18.646;2022-10-17T02:13:01;101185.97;;;8.91;82.77
74218;BME280;62579;47.288;18.646;2022-10-17T02:20:32;101193.06;;;8.79;82.22
74218;BME280;62579;47.288;18.646;2022-10-17T02:23:08;101192.75;;;8.77;82.58
74218;BME280;62579;47.288;18.646;2022-10-17T02:25:37;101192.91;;;8.83;82.36
74218;BME280;62579;47.288;18.646;2022-10-17T02:30:41;101196.37;;;8.83;81.83
74218;BME280;62579;47.288;18.646;2022-10-17T02:33:08;101200.16;;;8.86;81.39
74218;BME280;62579;47.288;18.646;2022-10-17T02:35:36;101191.41;;;8.82;81.53
74218;BME280;62579;47.288;18.646;2022-10-17T02:38:02;101197.16;;;8.84;81.37
74218;BME280;62579;47.288;18.646;2022-10-17T02:40:30;101193.66;;;8.83;81.88
74218;BME280;62579;47.288;18.646;2022-10-17T02:42:55;101194.13;;;8.82;82.43
74218;BME280;62579;47.288;18.646;2022-10-17T02:45:22;101202.56;;;8.84;82.06
74218;BME280;62579;47.288;18.646;2022-10-17T02:47:57;101197.91;;;8.93;81.32
74218;BME280;62579;47.288;18.646;2022-10-17T02:50:26;101195.50;;;8.95;81.22
74218;BME280;62579;47.288;18.646;2022-10-17T02:52:56;101202.25;;;8.91;81.93
74218;BME280;62579;47.288;18.646;2022-10-17T02:55:30;101203.00;;;8.82;82.50
74218;BME280;62579;47.288;18.646;2022-10-17T02:58:01;101205.59;;;8.86;82.45
74218;BME280;62579;47.288;18.646;2022-10-17T03:00:29;101211.62;;;8.90;82.54
74218;BME280;62579;47.288;18.646;2022-10-17T03:02:55;101204.22;;;8.90;82.23
74218;BME280;62579;47.288;18.646;2022-10-17T03:05:21;101202.28;;;8.82;82.16
74218;BME280;62579;47.288;18.646;2022-10-17T03:07:47;101212.06;;;8.79;82.13
74218;BME280;62579;47.288;18.646;2022-10-17T03:10:12;101217.63;;;8.67;81.90
74218;BME280;62579;47.288;18.646;2022-10-17T03:12:37;101215.19;;;8.60;81.08
74218;BME280;62579;47.288;18.646;2022-10-17T03:15:02;101220.84;;;8.34;81.75
74218;BME280;62579;47.288;18.646;2022-10-17T03:17:28;101219.56;;;8.17;82.42
74218;BME280;62579;47.288;18.646;2022-10-17T03:19:53;101224.81;;;8.12;83.04
74218;BME280;62579;47.288;18.646;2022-10-17T03:22:18;101230.06;;;8.06;83.71
74218;BME280;62579;47.288;18.646;2022-10-17T03:24:43;101230.19;;;8.03;83.83
74218;BME280;62579;47.288;18.646;2022-10-17T03:27:09;101227.47;;;8.03;83.87
74218;BME280;62579;47.288;18.646;2022-10-17T03:29:34;101216.81;;;8.08;83.96
74218;BME280;62579;47.288;18.646;2022-10-17T03:31:59;101229.00;;;8.13;83.99
74218;BME280;62579;47.288;18.646;2022-10-17T03:34:24;101228.75;;;8.20;83.66
74218;BME280;62579;47.288;18.646;2022-10-17T03:36:49;101230.75;;;8.28;83.74
74218;BME280;62579;47.288;18.646;2022-10-17T03:39:15;101235.28;;;8.31;84.12
74218;BME280;62579;47.288;18.646;2022-10-17T03:41:40;101233.97;;;8.36;84.25
74218;BME280;62579;47.288;18.646;2022-10-17T03:44:05;101242.41;;;8.38;84.31
74218;BME280;62579;47.288;18.646;2022-10-17T03:46:30;101239.25;;;8.39;83.88
74218;BME280;62579;47.288;18.646;2022-10-17T03:48:55;101239.88;;;8.43;83.80
74218;BME280;62579;47.288;18.646;2022-10-17T03:51:21;101241.81;;;8.43;83.64
74218;BME280;62579;47.288;18.646;2022-10-17T03:53:46;101243.19;;;8.48;83.54
74218;BME280;62579;47.288;18.646;2022-10-17T03:56:12;101257.63;;;8.44;83.55
74218;BME280;62579;47.288;18.646;2022-10-17T03:58:37;101257.63;;;8.44;83.38
74218;BME280;62579;47.288;18.646;2022-10-17T04:01:04;101258.88;;;8.43;83.30
74218;BME280;62579;47.288;18.646;2022-10-17T04:03:30;101268.34;;;8.39;83.14
74218;BME280;62579;47.288;18.646;2022-10-17T04:05:57;101265.75;;;8.35;83.52
74218;BME280;62579;47.288;18.646;2022-10-17T04:08:23;101271.37;;;8.41;82.60
74218;BME280;62579;47.288;18.646;2022-10-17T04:10:48;101270.44;;;8.35;82.98
74218;BME280;62579;47.288;18.646;2022-10-17T04:13:13;101280.78;;;8.27;83.99
74218;BME280;62579;47.288;18.646;2022-10-17T04:29:29;101263.53;;;8.43;84.15
74218;BME280;62579;47.288;18.646;2022-10-17T04:31:55;101268.94;;;8.43;84.43
74218;BME280;62579;47.288;18.646;2022-10-17T04:34:20;101265.06;;;8.53;84.28
74218;BME280;62579;47.288;18.646;2022-10-17T04:36:45;101268.09;;;8.55;84.53
74218;BME280;62579;47.288;18.646;2022-10-17T04:39:11;101266.41;;;8.49;85.50
74218;BME280;62579;47.288;18.646;2022-10-17T04:41:36;101276.38;;;8.52;85.34
74218;BME280;62579;47.288;18.646;2022-10-17T04:44:01;101283.56;;;8.45;86.02
74218;BME280;62579;47.288;18.646;2022-10-17T04:46:26;101294.44;;;8.45;85.68
74218;BME280;62579;47.288;18.646;2022-10-17T04:48:52;101305.28;;;8.45;85.10
74218;BME280;62579;47.288;18.646;2022-10-17T04:51:18;101295.47;;;8.39;84.70
74218;BME280;62579;47.288;18.646;2022-10-17T04:53:43;101301.50;;;8.43;84.37
74218;BME280;62579;47.288;18.646;2022-10-17T04:56:13;101309.59;;;8.34;82.73
74218;BME280;62579;47.288;18.646;2022-10-17T04:58:39;101307.25;;;8.23;82.34
74218;BME280;62579;47.288;18.646;2022-10-17T05:01:08;101310.50;;;8.09;82.56
74218;BME280;62579;47.288;18.646;2022-10-17T05:03:34;101308.97;;;8.08;83.11
74218;BME280;62579;47.288;18.646;2022-10-17T05:06:07;101318.44;;;8.04;83.33
74218;BME280;62579;47.288;18.646;2022-10-17T05:08:33;101315.75;;;8.04;83.30
74218;BME280;62579;47.288;18.646;2022-10-17T05:10:59;101321.47;;;8.06;83.60
74218;BME280;62579;47.288;18.646;2022-10-17T05:13:24;101310.34;;;8.13;83.40
74218;BME280;62579;47.288;18.646;2022-10-17T05:15:49;101312.94;;;8.16;84.25
74218;BME280;62579;47.288;18.646;2022-10-17T05:18:14;101325.16;;;8.21;84.34
74218;BME280;62579;47.288;18.646;2022-10-17T05:20:39;101328.63;;;8.21;84.86
74218;BME280;62579;47.288;18.646;2022-10-17T05:23:05;101333.19;;;8.24;85.20
74218;BME280;62579;47.288;18.646;2022-10-17T05:25:30;101337.00;;;8.27;85.24
74218;BME280;62579;47.288;18.646;2022-10-17T05:27:55;101337.75;;;8.27;85.80
74218;BME280;62579;47.288;18.646;2022-10-17T05:30:20;101350.16;;;8.37;85.71
74218;BME280;62579;47.288;18.646;2022-10-17T05:32:46;101347.12;;;8.35;85.66
74218;BME280;62579;47.288;18.646;2022-10-17T05:35:11;101342.44;;;8.67;90.68
74218;BME280;62579;47.288;18.646;2022-10-17T05:37:36;101348.03;;;8.63;87.51
74218;BME280;62579;47.288;18.646;2022-10-17T05:40:01;101351.81;;;8.66;86.34
74218;BME280;62579;47.288;18.646;2022-10-17T05:42:27;101354.06;;;8.67;85.69
74218;BME280;62579;47.288;18.646;2022-10-17T05:44:52;101357.72;;;8.73;85.55
74218;BME280;62579;47.288;18.646;2022-10-17T05:47:17;101357.44;;;8.80;85.31
74218;BME280;62579;47.288;18.646;2022-10-17T05:49:42;101368.75;;;8.88;85.31
74218;BME280;62579;47.288;18.646;2022-10-17T05:52:07;101370.91;;;8.93;85.50
74218;BME280;62579;47.288;18.646;2022-10-17T05:54:33;101366.41;;;8.99;85.66
74218;BME280;62579;47.288;18.646;2022-10-17T05:56:58;101379.13;;;9.11;85.31
74218;BME280;62579;47.288;18.646;2022-10-17T05:59:24;101379.44;;;9.22;84.82
74218;BME280;62579;47.288;18.646;2022-10-17T06:01:49;101380.97;;;9.32;85.06
74218;BME280;62579;47.288;18.646;2022-10-17T06:04:14;101383.72;;;9.50;85.43
74218;BME280;62579;47.288;18.646;2022-10-17T06:06:40;101393.88;;;9.68;85.72
74218;BME280;62579;47.288;18.646;2022-10-17T06:09:05;101396.72;;;9.74;85.59
74218;BME280;62579;47.288;18.646;2022-10-17T06:11:31;101399.31;;;9.86;84.67
74218;BME280;62579;47.288;18.646;2022-10-17T06:13:56;101397.31;;;9.96;83.90
74218;BME280;62579;47.288;18.646;2022-10-17T06:16:22;101404.88;;;10.10;83.75
74218;BME280;62579;47.288;18.646;2022-10-17T06:18:47;101404.28;;;10.24;83.39
74218;BME280;62579;47.288;18.646;2022-10-17T06:21:14;101405.03;;;10.34;83.42
74218;BME280;62579;47.288;18.646;2022-10-17T06:23:39;101408.50;;;10.43;82.89
74218;BME280;62579;47.288;18.646;2022-10-17T06:26:05;101405.12;;;10.57;82.64
74218;BME280;62579;47.288;18.646;2022-10-17T06:31:18;101406.56;;;10.76;82.04
74218;BME280;62579;47.288;18.646;2022-10-17T06:59:04;101438.62;;;11.80;78.39
74218;BME280;62579;47.288;18.646;2022-10-17T07:01:30;101438.03;;;11.76;78.22
74218;BME280;62579;47.288;18.646;2022-10-17T07:03:56;101442.44;;;11.73;78.77
74218;BME280;62579;47.288;18.646;2022-10-17T07:06:21;101443.87;;;11.83;79.26
74218;BME280;62579;47.288;18.646;2022-10-17T07:08:48;101444.59;;;12.07;78.59
74218;BME280;62579;47.288;18.646;2022-10-17T07:11:15;101453.81;;;11.95;78.56
74218;BME280;62579;47.288;18.646;2022-10-17T07:13:41;101444.34;;;12.20;77.79
74218;BME280;62579;47.288;18.646;2022-10-17T07:16:06;101444.06;;;12.18;77.57
74218;BME280;62579;47.288;18.646;2022-10-17T07:18:32;101449.53;;;12.33;77.25
74218;BME280;62579;47.288;18.646;2022-10-17T07:20:57;101455.75;;;12.33;77.08
74218;BME280;62579;47.288;18.646;2022-10-17T07:23:22;101454.66;;;12.54;76.78
74218;BME280;62579;47.288;18.646;2022-10-17T07:25:47;101453.34;;;12.50;75.64
74218;BME280;62579;47.288;18.646;2022-10-17T07:28:13;101456.06;;;12.64;74.77
74218;BME280;62579;47.288;18.646;2022-10-17T07:30:39;101459.63;;;12.71;74.72
74218;BME280;62579;47.288;18.646;2022-10-17T07:33:04;101452.25;;;12.91;74.12
74218;BME280;62579;47.288;18.646;2022-10-17T07:35:29;101454.41;;;13.02;74.39
74218;BME280;62579;47.288;18.646;2022-10-17T07:37:54;101455.47;;;12.90;73.67
74218;BME280;62579;47.288;18.646;2022-10-17T07:40:19;101466.00;;;12.97;73.33
74218;BME280;62579;47.288;18.646;2022-10-17T07:42:45;101457.44;;;13.18;72.89
74218;BME280;62579;47.288;18.646;2022-10-17T07:45:10;101451.50;;;13.20;72.05
74218;BME280;62579;47.288;18.646;2022-10-17T07:47:35;101455.44;;;13.34;71.77
74218;BME280;62579;47.288;18.646;2022-10-17T07:50:01;101452.78;;;13.39;71.67
74218;BME280;62579;47.288;18.646;2022-10-17T07:52:26;101452.59;;;13.63;71.90
74218;BME280;62579;47.288;18.646;2022-10-17T07:54:51;101453.28;;;13.58;71.39
74218;BME280;62579;47.288;18.646;2022-10-17T07:57:17;101452.38;;;13.66;71.66
74218;BME280;62579;47.288;18.646;2022-10-17T07:59:42;101459.28;;;13.82;72.38
74218;BME280;62579;47.288;18.646;2022-10-17T08:02:09;101453.94;;;13.93;70.22
74218;BME280;62579;47.288;18.646;2022-10-17T08:04:38;101454.81;;;14.05;69.35
74218;BME280;62579;47.288;18.646;2022-10-17T08:07:03;101456.97;;;14.21;69.48
74218;BME280;62579;47.288;18.646;2022-10-17T08:09:28;101463.53;;;14.29;68.80
74218;BME280;62579;47.288;18.646;2022-10-17T08:11:53;101467.13;;;14.35;68.21
74218;BME280;62579;47.288;18.646;2022-10-17T08:14:18;101466.91;;;14.38;68.38
74218;BME280;62579;47.288;18.646;2022-10-17T08:16:44;101464.75;;;14.48;67.98
74218;BME280;62579;47.288;18.646;2022-10-17T08:19:09;101469.62;;;14.64;66.60
74218;BME280;62579;47.288;18.646;2022-10-17T08:21:35;101467.22;;;14.72;67.10
74218;BME280;62579;47.288;18.646;2022-10-17T08:24:00;101472.78;;;14.83;66.43
74218;BME280;62579;47.288;18.646;2022-10-17T08:26:26;101468.91;;;14.95;66.10
74218;BME280;62579;47.288;18.646;2022-10-17T08:28:52;101473.44;;;15.03;66.17
74218;BME280;62579;47.288;18.646;2022-10-17T08:31:17;101469.69;;;15.01;65.46
74218;BME280;62579;47.288;18.646;2022-10-17T08:33:43;101470.03;;;15.14;63.74
74218;BME280;62579;47.288;18.646;2022-10-17T08:36:09;101468.31;;;15.17;64.23
74218;BME280;62579;47.288;18.646;2022-10-17T08:38:36;101472.59;;;15.23;63.84
74218;BME280;62579;47.288;18.646;2022-10-17T08:41:05;101473.16;;;15.33;63.60
74218;BME280;62579;47.288;18.646;2022-10-17T08:46:03;101475.53;;;15.51;62.79
74218;BME280;62579;47.288;18.646;2022-10-17T08:48:34;101485.88;;;15.73;62.01
74218;BME280;62579;47.288;18.646;2022-10-17T08:51:02;101471.37;;;15.67;61.38
74218;BME280;62579;47.288;18.646;2022-10-17T08:56:22;101471.22;;;15.92;62.41
74218;BME280;62579;47.288;18.646;2022-10-17T08:58:48;101475.28;;;16.02;60.65
74218;BME280;62579;47.288;18.646;2022-10-17T09:01:20;101473.78;;;16.07;59.88
74218;BME280;62579;47.288;18.646;2022-10-17T09:03:58;101470.75;;;15.99;58.70
74218;BME280;62579;47.288;18.646;2022-10-17T09:06:27;101465.31;;;16.16;58.79
74218;BME280;62579;47.288;18.646;2022-10-17T09:11:40;101466.88;;;16.45;59.76
74218;BME280;62579;47.288;18.646;2022-10-17T09:16:58;101466.91;;;16.56;57.39
74218;BME280;62579;47.288;18.646;2022-10-17T09:19:34;101477.41;;;16.63;57.78
74218;BME280;62579;47.288;18.646;2022-10-17T09:22:01;101472.69;;;16.80;57.67
74218;BME280;62579;47.288;18.646;2022-10-17T09:26:52;101471.16;;;16.96;57.85
74218;BME280;62579;47.288;18.646;2022-10-17T09:29:23;101468.66;;;17.03;57.07
74218;BME280;62579;47.288;18.646;2022-10-17T09:32:01;101471.63;;;17.16;56.89
74218;BME280;62579;47.288;18.646;2022-10-17T09:34:28;101481.16;;;17.26;56.24
74218;BME280;62579;47.288;18.646;2022-10-17T09:36:53;101474.09;;;17.42;55.48
74218;BME280;62579;47.288;18.646;2022-10-17T09:39:21;101470.06;;;17.49;56.24
74218;BME280;62579;47.288;18.646;2022-10-17T09:41:48;101472.81;;;17.60;55.09
74218;BME280;62579;47.288;18.646;2022-10-17T09:44:16;101469.81;;;17.52;54.31
74218;BME280;62579;47.288;18.646;2022-10-17T09:46:42;101479.62;;;17.53;53.94
74218;BME280;62579;47.288;18.646;2022-10-17T09:49:13;101475.56;;;17.65;53.39
74218;BME280;62579;47.288;18.646;2022-10-17T09:51:38;101463.72;;;17.81;54.50
74218;BME280;62579;47.288;18.646;2022-10-17T09:54:19;101476.69;;;17.92;52.67
74218;BME280;62579;47.288;18.646;2022-10-17T09:57:05;101472.38;;;18.02;52.60
74218;BME280;62579;47.288;18.646;2022-10-17T09:59:33;101470.09;;;18.12;52.38
74218;BME280;62579;47.288;18.646;2022-10-17T10:04:33;101461.13;;;18.46;51.52
74218;BME280;62579;47.288;18.646;2022-10-17T10:07:04;101461.56;;;18.56;51.04
74218;BME280;62579;47.288;18.646;2022-10-17T10:09:31;101457.31;;;18.55;51.17
74218;BME280;62579;47.288;18.646;2022-10-17T10:11:57;101454.50;;;18.66;51.05
74218;BME280;62579;47.288;18.646;2022-10-17T10:14:30;101452.62;;;18.44;49.61
74218;BME280;62579;47.288;18.646;2022-10-17T10:16:58;101455.88;;;18.43;48.99
74218;BME280;62579;47.288;18.646;2022-10-17T10:19:31;101450.84;;;18.82;49.98
74218;BME280;62579;47.288;18.646;2022-10-17T10:22:01;101444.66;;;19.00;47.66
74218;BME280;62579;47.288;18.646;2022-10-17T10:24:27;101456.03;;;19.15;48.85
74218;BME280;62579;47.288;18.646;2022-10-17T10:26:56;101451.91;;;19.03;48.15
74218;BME280;62579;47.288;18.646;2022-10-17T10:31:53;101447.97;;;18.93;47.61
74218;BME280;62579;47.288;18.646;2022-10-17T10:34:28;101452.03;;;19.16;48.37
74218;BME280;62579;47.288;18.646;2022-10-17T10:36:56;101445.00;;;19.15;47.94
74218;BME280;62579;47.288;18.646;2022-10-17T10:39:31;101452.88;;;19.30;48.14
74218;BME280;62579;47.288;18.646;2022-10-17T10:41:57;101446.56;;;19.35;46.77
74218;BME280;62579;47.288;18.646;2022-10-17T10:44:23;101443.16;;;19.24;46.26
74218;BME280;62579;47.288;18.646;2022-10-17T10:47:13;101445.09;;;19.29;45.59
74218;BME280;62579;47.288;18.646;2022-10-17T10:49:39;101442.28;;;19.34;47.88
74218;BME280;62579;47.288;18.646;2022-10-17T10:52:05;101449.91;;;19.52;46.57
74218;BME280;62579;47.288;18.646;2022-10-17T10:54:33;101443.72;;;19.65;45.72
74218;BME280;62579;47.288;18.646;2022-10-17T10:57:03;101437.22;;;19.62;44.63
74218;BME280;62579;47.288;18.646;2022-10-17T11:04:39;101432.47;;;19.63;43.83
74218;BME280;62579;47.288;18.646;2022-10-17T11:07:10;101432.22;;;19.79;43.89
74218;BME280;62579;47.288;18.646;2022-10-17T11:09:55;101426.94;;;19.82;44.91
74218;BME280;62579;47.288;18.646;2022-10-17T11:17:42;101418.78;;;20.08;44.09
74218;BME280;62579;47.288;18.646;2022-10-17T11:20:18;101420.44;;;19.98;44.03
74218;BME280;62579;47.288;18.646;2022-10-17T11:22:48;101420.06;;;20.25;44.54
74218;BME280;62579;47.288;18.646;2022-10-17T11:28:01;101416.31;;;20.04;44.60
74218;BME280;62579;47.288;18.646;2022-10-17T11:30:30;101419.00;;;20.10;44.07
74218;BME280;62579;47.288;18.646;2022-10-17T11:32:59;101404.50;;;20.22;44.04
74218;BME280;62579;47.288;18.646;2022-10-17T11:35:29;101420.44;;;19.98;44.38
74218;BME280;62579;47.288;18.646;2022-10-17T11:40:26;101414.22;;;20.29;44.39
74218;BME280;62579;47.288;18.646;2022-10-17T11:42:56;101409.09;;;20.52;44.06
74218;BME280;62579;47.288;18.646;2022-10-17T11:45:23;101408.56;;;20.53;42.64
74218;BME280;62579;47.288;18.646;2022-10-17T11:50:39;101403.06;;;20.66;43.23
74218;BME280;62579;47.288;18.646;2022-10-17T12:53:48;101361.34;;;21.56;40.83
74218;BME280;62579;47.288;18.646;2022-10-17T12:56:18;101354.66;;;21.38;41.10
74218;BME280;62579;47.288;18.646;2022-10-17T12:58:45;101350.31;;;21.30;41.38
74218;BME280;62579;47.288;18.646;2022-10-17T13:01:25;101354.44;;;21.36;41.35
74218;BME280;62579;47.288;18.646;2022-10-17T13:03:51;101355.97;;;21.11;42.04
74218;BME280;62579;47.288;18.646;2022-10-17T13:06:27;101350.72;;;21.34;41.61
74218;BME280;62579;47.288;18.646;2022-10-17T13:08:57;101355.56;;;21.07;41.80
74218;BME280;62579;47.288;18.646;2022-10-17T13:11:24;101357.25;;;21.10;41.91
74218;BME280;62579;47.288;18.646;2022-10-17T13:13:52;101356.19;;;21.13;41.52
74218;BME280;62579;47.288;18.646;2022-10-17T13:18:56;101347.12;;;21.26;42.06
74218;BME280;62579;47.288;18.646;2022-10-17T13:21:21;101350.66;;;21.26;41.68
74218;BME280;62579;47.288;18.646;2022-10-17T13:23:46;101342.13;;;21.24;41.55
74218;BME280;62579;47.288;18.646;2022-10-17T13:28:40;101342.97;;;21.32;42.43
74218;BME280;62579;47.288;18.646;2022-10-17T13:31:06;101348.75;;;21.08;41.48
74218;BME280;62579;47.288;18.646;2022-10-17T13:33:38;101337.34;;;21.12;41.54
74218;BME280;62579;47.288;18.646;2022-10-17T13:36:12;101338.63;;;21.24;41.83
74218;BME280;62579;47.288;18.646;2022-10-17T13:38:39;101338.63;;;21.11;41.54
74218;BME280;62579;47.288;18.646;2022-10-17T13:41:08;101334.87;;;21.21;41.64
74218;BME280;62579;47.288;18.646;2022-10-17T13:43:34;101343.38;;;21.36;41.53
74218;BME280;62579;47.288;18.646;2022-10-17T13:46:00;101334.03;;;21.26;41.99
74218;BME280;62579;47.288;18.646;2022-10-17T13:48:29;101338.78;;;21.39;41.78
74218;BME280;62579;47.288;18.646;2022-10-17T13:50:55;101331.81;;;21.59;41.73
74218;BME280;62579;47.288;18.646;2022-10-17T13:53:26;101344.66;;;21.22;42.30
74218;BME280;62579;47.288;18.646;2022-10-17T13:58:19;101337.75;;;21.29;41.62
74218;BME280;62579;47.288;18.646;2022-10-17T14:00:44;101332.84;;;21.35;41.35
74218;BME280;62579;47.288;18.646;2022-10-17T14:03:10;101333.72;;;21.17;40.98
74218;BME280;62579;47.288;18.646;2022-10-17T14:05:35;101338.94;;;21.07;40.99
74218;BME280;62579;47.288;18.646;2022-10-17T14:08:20;101330.72;;;21.15;41.03
74218;BME280;62579;47.288;18.646;2022-10-17T14:10:46;101334.13;;;21.34;40.24
74218;BME280;62579;47.288;18.646;2022-10-17T14:13:18;101327.91;;;21.54;40.03
74218;BME280;62579;47.288;18.646;2022-10-17T14:15:43;101331.28;;;21.60;40.38
74218;BME280;62579;47.288;18.646;2022-10-17T14:18:13;101330.62;;;21.67;40.59
74218;BME280;62579;47.288;18.646;2022-10-17T14:20:44;101330.88;;;21.56;40.89
74218;BME280;62579;47.288;18.646;2022-10-17T14:23:30;101320.75;;;21.59;40.11
74218;BME280;62579;47.288;18.646;2022-10-17T14:28:33;101320.63;;;21.64;40.35
74218;BME280;62579;47.288;18.646;2022-10-17T14:31:09;101329.13;;;21.32;39.72
74218;BME280;62579;47.288;18.646;2022-10-17T14:33:35;101323.78;;;21.34;39.48
74218;BME280;62579;47.288;18.646;2022-10-17T14:36:01;101324.94;;;21.39;39.53
74218;BME280;62579;47.288;18.646;2022-10-17T14:38:28;101332.09;;;21.34;39.56
74218;BME280;62579;47.288;18.646;2022-10-17T14:41:00;101337.31;;;21.38;39.90
74218;BME280;62579;47.288;18.646;2022-10-17T14:43:27;101336.56;;;21.37;40.15
74218;BME280;62579;47.288;18.646;2022-10-17T14:45:55;101332.50;;;21.38;40.35
74218;BME280;62579;47.288;18.646;2022-10-17T14:48:21;101330.91;;;21.43;40.20
74218;BME280;62579;47.288;18.646;2022-10-17T16:42:51;101381.59;;;18.56;53.82
74218;BME280;62579;47.288;18.646;2022-10-17T16:45:18;101378.47;;;18.41;54.26
74218;BME280;62579;47.288;18.646;2022-10-17T16:47:43;101387.91;;;18.16;54.95
74218;BME280;62579;47.288;18.646;2022-10-17T16:50:08;101392.78;;;17.98;55.30
74218;BME280;62579;47.288;18.646;2022-10-17T16:52:34;101386.03;;;17.94;55.71
74218;BME280;62579;47.288;18.646;2022-10-17T16:54:59;101393.37;;;17.80;56.17
74218;BME280;62579;47.288;18.646;2022-10-17T16:57:24;101387.44;;;17.71;56.54
74218;BME280;62579;47.288;18.646;2022-10-17T16:59:49;101397.47;;;17.68;56.90
74218;BME280;62579;47.288;18.646;2022-10-17T17:02:14;101394.97;;;17.59;57.01
74218;BME280;62579;47.288;18.646;2022-10-17T17:04:40;101397.75;;;17.48;57.28
74218;BME280;62579;47.288;18.646;2022-10-17T17:07:05;101397.84;;;17.31;57.80
74218;BME280;62579;47.288;18.646;2022-10-17T17:09:30;101394.91;;;17.07;58.43
74218;BME280;62579;47.288;18.646;2022-10-17T17:11:55;101396.91;;;16.96;58.94
74218;BME280;62579;47.288;18.646;2022-10-17T17:14:21;101393.94;;;16.71;59.33
74218;BME280;62579;47.288;18.646;2022-10-17T17:16:46;101393.66;;;16.42;59.69
74218;BME280;62579;47.288;18.646;2022-10-17T17:19:12;101393.66;;;16.36;59.87
74218;BME280;62579;47.288;18.646;2022-10-17T17:21:43;101396.41;;;16.19;59.88
74218;BME280;62579;47.288;18.646;2022-10-17T17:27:25;101399.37;;;16.10;60.17
74218;BME280;62579;47.288;18.646;2022-10-17T17:29:50;101399.81;;;15.92;60.50
74218;BME280;62579;47.288;18.646;2022-10-17T17:32:16;101403.03;;;15.74;61.16
74218;BME280;62579;47.288;18.646;2022-10-17T17:34:41;101401.00;;;15.63;61.43
74218;BME280;62579;47.288;18.646;2022-10-17T17:37:06;101394.19;;;15.48;61.78
74218;BME280;62579;47.288;18.646;2022-10-17T17:39:32;101401.31;;;15.29;62.34
74218;BME280;62579;47.288;18.646;2022-10-17T17:41:57;101398.94;;;15.05;63.02
74218;BME280;62579;47.288;18.646;2022-10-17T17:44:22;101398.38;;;14.95;63.38
74218;BME280;62579;47.288;18.646;2022-10-17T17:46:47;101402.75;;;14.82;63.82
74218;BME280;62579;47.288;18.646;2022-10-17T17:49:13;101398.53;;;14.81;63.94
74218;BME280;62579;47.288;18.646;2022-10-17T17:51:38;101410.37;;;14.67;64.75